Terminal Aerodrome Forecast
Issued by NWS Atlanta, GA

Home | Current Version | Previous Version | Text Only | Print | Product List | Glossary On
Versions: 1 2 3 4 5 6 7 8 9 10 11 12 13
746
FTUS42 KFFC 281129
TAFCSG
TAF
KCSG 281129Z 2812/2912 09005KT P6SM SCT050 BKN080
     FM281700 09006KT P6SM SCT045 BKN070
     FM290000 06004KT P6SM BKN250=

USA.gov is the U.S. government's official web portal to all federal, state and local government web resources and services.